sensor_id;sensor_type;location;lat;lon;timestamp;P1;durP1;ratioP1;P2;durP2;ratioP2
69588;SDS011;56792;50.644;17.984;2022-11-15T00:02:22;35.90;;;16.90;;
69588;SDS011;56792;50.644;17.984;2022-11-15T00:05:12;36.80;;;16.80;;
69588;SDS011;56792;50.644;17.984;2022-11-15T00:08:03;42.00;;;18.20;;
69588;SDS011;56792;50.644;17.984;2022-11-15T00:10:58;36.50;;;16.30;;
69588;SDS011;56792;50.644;17.984;2022-11-15T00:13:49;40.30;;;17.60;;
69588;SDS011;56792;50.644;17.984;2022-11-15T00:16:44;42.50;;;19.50;;
69588;SDS011;56792;50.644;17.984;2022-11-15T00:19:35;36.70;;;17.60;;
69588;SDS011;56792;50.644;17.984;2022-11-15T00:22:25;37.30;;;18.10;;
69588;SDS011;56792;50.644;17.984;2022-11-15T00:25:22;42.60;;;20.50;;
69588;SDS011;56792;50.644;17.984;2022-11-15T00:28:12;42.40;;;19.80;;
69588;SDS011;56792;50.644;17.984;2022-11-15T00:31:04;45.10;;;20.10;;
69588;SDS011;56792;50.644;17.984;2022-11-15T00:33:56;46.30;;;20.80;;
69588;SDS011;56792;50.644;17.984;2022-11-15T00:36:46;48.80;;;19.80;;
69588;SDS011;56792;50.644;17.984;2022-11-15T00:39:36;46.90;;;19.80;;
69588;SDS011;56792;50.644;17.984;2022-11-15T00:42:28;50.00;;;21.70;;
69588;SDS011;56792;50.644;17.984;2022-11-15T00:45:19;53.90;;;21.90;;
69588;SDS011;56792;50.644;17.984;2022-11-15T00:48:10;53.30;;;23.40;;
69588;SDS011;56792;50.644;17.984;2022-11-15T00:51:01;53.30;;;22.00;;
69588;SDS011;56792;50.644;17.984;2022-11-15T00:53:52;44.90;;;19.10;;
69588;SDS011;56792;50.644;17.984;2022-11-15T00:56:42;53.70;;;22.60;;
69588;SDS011;56792;50.644;17.984;2022-11-15T00:59:33;48.30;;;21.50;;
69588;SDS011;56792;50.644;17.984;2022-11-15T01:02:23;51.90;;;20.70;;
69588;SDS011;56792;50.644;17.984;2022-11-15T01:05:15;47.20;;;19.00;;
69588;SDS011;56792;50.644;17.984;2022-11-15T01:08:06;39.80;;;18.30;;
69588;SDS011;56792;50.644;17.984;2022-11-15T01:11:04;39.30;;;17.80;;
69588;SDS011;56792;50.644;17.984;2022-11-15T01:13:56;39.90;;;17.70;;
69588;SDS011;56792;50.644;17.984;2022-11-15T01:16:46;35.20;;;16.70;;
69588;SDS011;56792;50.644;17.984;2022-11-15T01:19:37;40.80;;;18.60;;
69588;SDS011;56792;50.644;17.984;2022-11-15T01:22:27;40.80;;;17.60;;
69588;SDS011;56792;50.644;17.984;2022-11-15T01:25:18;43.70;;;19.70;;
69588;SDS011;56792;50.644;17.984;2022-11-15T01:28:09;44.20;;;19.60;;
69588;SDS011;56792;50.644;17.984;2022-11-15T01:31:00;46.40;;;20.30;;
69588;SDS011;56792;50.644;17.984;2022-11-15T01:33:52;42.40;;;19.30;;
69588;SDS011;56792;50.644;17.984;2022-11-15T01:36:42;45.10;;;21.60;;
69588;SDS011;56792;50.644;17.984;2022-11-15T01:39:33;41.50;;;20.00;;
69588;SDS011;56792;50.644;17.984;2022-11-15T01:42:23;39.80;;;18.40;;
69588;SDS011;56792;50.644;17.984;2022-11-15T01:45:30;38.90;;;19.00;;
69588;SDS011;56792;50.644;17.984;2022-11-15T01:48:21;35.10;;;14.00;;
69588;SDS011;56792;50.644;17.984;2022-11-15T01:51:15;44.20;;;19.10;;
69588;SDS011;56792;50.644;17.984;2022-11-15T01:54:10;39.30;;;17.80;;
69588;SDS011;56792;50.644;17.984;2022-11-15T01:57:06;41.00;;;18.30;;
69588;SDS011;56792;50.644;17.984;2022-11-15T02:00:00;46.10;;;19.80;;
69588;SDS011;56792;50.644;17.984;2022-11-15T02:02:52;38.50;;;18.60;;
69588;SDS011;56792;50.644;17.984;2022-11-15T02:05:43;33.40;;;18.30;;
69588;SDS011;56792;50.644;17.984;2022-11-15T02:08:34;35.10;;;18.10;;
69588;SDS011;56792;50.644;17.984;2022-11-15T02:11:25;36.80;;;16.80;;
69588;SDS011;56792;50.644;17.984;2022-11-15T02:14:18;34.20;;;17.20;;
69588;SDS011;56792;50.644;17.984;2022-11-15T02:17:29;37.30;;;16.30;;
69588;SDS011;56792;50.644;17.984;2022-11-15T02:20:46;34.00;;;18.50;;
69588;SDS011;56792;50.644;17.984;2022-11-15T02:24:06;39.30;;;19.00;;
69588;SDS011;56792;50.644;17.984;2022-11-15T02:27:51;31.30;;;15.90;;
69588;SDS011;56792;50.644;17.984;2022-11-15T02:31:02;29.70;;;16.20;;
69588;SDS011;56792;50.644;17.984;2022-11-15T02:34:05;34.70;;;16.70;;
69588;SDS011;56792;50.644;17.984;2022-11-15T02:37:10;34.30;;;17.10;;
69588;SDS011;56792;50.644;17.984;2022-11-15T02:40:11;35.00;;;16.40;;
69588;SDS011;56792;50.644;17.984;2022-11-15T02:43:10;39.70;;;18.00;;
69588;SDS011;56792;50.644;17.984;2022-11-15T02:46:26;32.70;;;16.40;;
69588;SDS011;56792;50.644;17.984;2022-11-15T02:49:41;34.70;;;16.50;;
69588;SDS011;56792;50.644;17.984;2022-11-15T02:52:34;36.20;;;18.70;;
69588;SDS011;56792;50.644;17.984;2022-11-15T02:55:33;44.20;;;20.30;;
69588;SDS011;56792;50.644;17.984;2022-11-15T02:58:45;44.70;;;20.80;;
69588;SDS011;56792;50.644;17.984;2022-11-15T03:01:54;36.50;;;18.90;;
69588;SDS011;56792;50.644;17.984;2022-11-15T03:04:58;37.90;;;17.40;;
69588;SDS011;56792;50.644;17.984;2022-11-15T03:08:00;22.40;;;12.30;;
69588;SDS011;56792;50.644;17.984;2022-11-15T03:11:02;37.10;;;17.60;;
69588;SDS011;56792;50.644;17.984;2022-11-15T03:14:00;31.30;;;16.80;;
69588;SDS011;56792;50.644;17.984;2022-11-15T03:17:01;36.50;;;16.60;;
69588;SDS011;56792;50.644;17.984;2022-11-15T03:20:00;36.50;;;15.80;;
69588;SDS011;56792;50.644;17.984;2022-11-15T03:22:55;37.20;;;17.30;;
69588;SDS011;56792;50.644;17.984;2022-11-15T03:25:51;33.10;;;15.90;;
69588;SDS011;56792;50.644;17.984;2022-11-15T03:28:52;32.30;;;15.50;;
69588;SDS011;56792;50.644;17.984;2022-11-15T03:31:47;35.10;;;17.00;;
69588;SDS011;56792;50.644;17.984;2022-11-15T03:34:47;32.40;;;17.30;;
69588;SDS011;56792;50.644;17.984;2022-11-15T03:37:44;34.00;;;16.80;;
69588;SDS011;56792;50.644;17.984;2022-11-15T03:40:41;31.30;;;15.60;;
69588;SDS011;56792;50.644;17.984;2022-11-15T03:43:39;32.50;;;16.40;;
69588;SDS011;56792;50.644;17.984;2022-11-15T03:46:36;32.90;;;17.00;;
69588;SDS011;56792;50.644;17.984;2022-11-15T03:49:36;35.20;;;16.20;;
69588;SDS011;56792;50.644;17.984;2022-11-15T03:52:33;33.40;;;16.90;;
69588;SDS011;56792;50.644;17.984;2022-11-15T03:55:25;37.00;;;17.60;;
69588;SDS011;56792;50.644;17.984;2022-11-15T03:58:15;47.10;;;21.60;;
69588;SDS011;56792;50.644;17.984;2022-11-15T04:01:06;45.40;;;20.10;;
69588;SDS011;56792;50.644;17.984;2022-11-15T04:03:57;44.40;;;20.30;;
69588;SDS011;56792;50.644;17.984;2022-11-15T04:06:47;43.80;;;20.30;;
69588;SDS011;56792;50.644;17.984;2022-11-15T04:09:38;45.40;;;19.80;;
69588;SDS011;56792;50.644;17.984;2022-11-15T04:12:43;47.50;;;20.10;;
69588;SDS011;56792;50.644;17.984;2022-11-15T04:15:35;46.00;;;21.50;;
69588;SDS011;56792;50.644;17.984;2022-11-15T04:18:26;39.70;;;17.00;;
69588;SDS011;56792;50.644;17.984;2022-11-15T04:21:17;45.30;;;21.00;;
69588;SDS011;56792;50.644;17.984;2022-11-15T04:24:25;38.40;;;19.50;;
69588;SDS011;56792;50.644;17.984;2022-11-15T04:27:16;43.80;;;20.20;;
69588;SDS011;56792;50.644;17.984;2022-11-15T04:30:09;38.90;;;19.50;;
69588;SDS011;56792;50.644;17.984;2022-11-15T04:33:00;39.00;;;19.80;;
69588;SDS011;56792;50.644;17.984;2022-11-15T04:35:51;44.10;;;20.70;;
69588;SDS011;56792;50.644;17.984;2022-11-15T04:39:00;39.60;;;19.90;;
69588;SDS011;56792;50.644;17.984;2022-11-15T04:41:51;34.00;;;18.20;;
69588;SDS011;56792;50.644;17.984;2022-11-15T04:44:44;42.50;;;19.60;;
69588;SDS011;56792;50.644;17.984;2022-11-15T04:47:38;37.10;;;18.10;;
69588;SDS011;56792;50.644;17.984;2022-11-15T04:50:31;35.40;;;18.20;;
69588;SDS011;56792;50.644;17.984;2022-11-15T04:53:21;33.60;;;18.40;;
69588;SDS011;56792;50.644;17.984;2022-11-15T04:56:11;37.00;;;20.60;;
69588;SDS011;56792;50.644;17.984;2022-11-15T04:59:02;34.70;;;19.00;;
69588;SDS011;56792;50.644;17.984;2022-11-15T05:01:53;35.40;;;18.20;;
69588;SDS011;56792;50.644;17.984;2022-11-15T05:04:43;40.30;;;17.80;;
69588;SDS011;56792;50.644;17.984;2022-11-15T05:07:33;37.80;;;18.70;;
69588;SDS011;56792;50.644;17.984;2022-11-15T05:10:23;35.50;;;18.80;;
69588;SDS011;56792;50.644;17.984;2022-11-15T05:13:14;33.50;;;18.20;;
69588;SDS011;56792;50.644;17.984;2022-11-15T05:16:05;30.90;;;16.60;;
69588;SDS011;56792;50.644;17.984;2022-11-15T05:18:56;34.50;;;16.80;;
69588;SDS011;56792;50.644;17.984;2022-11-15T05:21:46;37.10;;;18.10;;
69588;SDS011;56792;50.644;17.984;2022-11-15T05:24:37;34.00;;;17.70;;
69588;SDS011;56792;50.644;17.984;2022-11-15T05:27:27;35.50;;;17.70;;
69588;SDS011;56792;50.644;17.984;2022-11-15T05:30:18;34.30;;;17.10;;
69588;SDS011;56792;50.644;17.984;2022-11-15T05:33:09;30.30;;;15.90;;
69588;SDS011;56792;50.644;17.984;2022-11-15T05:36:02;31.30;;;16.90;;
69588;SDS011;56792;50.644;17.984;2022-11-15T05:38:58;33.70;;;16.30;;
69588;SDS011;56792;50.644;17.984;2022-11-15T05:41:52;29.40;;;15.70;;
69588;SDS011;56792;50.644;17.984;2022-11-15T05:44:48;32.00;;;17.60;;
69588;SDS011;56792;50.644;17.984;2022-11-15T05:47:40;37.10;;;18.10;;
69588;SDS011;56792;50.644;17.984;2022-11-15T05:50:32;37.40;;;17.50;;
69588;SDS011;56792;50.644;17.984;2022-11-15T05:53:26;35.20;;;17.20;;
69588;SDS011;56792;50.644;17.984;2022-11-15T05:56:18;39.20;;;18.40;;
69588;SDS011;56792;50.644;17.984;2022-11-15T05:59:10;37.60;;;18.10;;
69588;SDS011;56792;50.644;17.984;2022-11-15T06:02:02;38.70;;;19.20;;
69588;SDS011;56792;50.644;17.984;2022-11-15T06:04:52;36.70;;;18.20;;
69588;SDS011;56792;50.644;17.984;2022-11-15T06:07:43;37.70;;;19.30;;
69588;SDS011;56792;50.644;17.984;2022-11-15T06:10:34;39.00;;;20.20;;
69588;SDS011;56792;50.644;17.984;2022-11-15T06:13:25;36.90;;;18.00;;
69588;SDS011;56792;50.644;17.984;2022-11-15T06:16:15;37.60;;;18.10;;
69588;SDS011;56792;50.644;17.984;2022-11-15T06:19:07;36.40;;;18.30;;
69588;SDS011;56792;50.644;17.984;2022-11-15T06:21:58;35.60;;;18.80;;
69588;SDS011;56792;50.644;17.984;2022-11-15T06:24:49;35.20;;;18.20;;
69588;SDS011;56792;50.644;17.984;2022-11-15T06:27:39;34.80;;;17.90;;
69588;SDS011;56792;50.644;17.984;2022-11-15T06:30:30;36.00;;;17.40;;
69588;SDS011;56792;50.644;17.984;2022-11-15T06:33:21;35.60;;;17.40;;
69588;SDS011;56792;50.644;17.984;2022-11-15T06:36:13;33.00;;;17.70;;
69588;SDS011;56792;50.644;17.984;2022-11-15T06:39:04;31.60;;;16.80;;
69588;SDS011;56792;50.644;17.984;2022-11-15T06:41:56;40.10;;;19.30;;
69588;SDS011;56792;50.644;17.984;2022-11-15T06:44:47;36.10;;;19.20;;
69588;SDS011;56792;50.644;17.984;2022-11-15T06:47:45;34.00;;;18.20;;
69588;SDS011;56792;50.644;17.984;2022-11-15T06:50:36;33.10;;;16.80;;
69588;SDS011;56792;50.644;17.984;2022-11-15T06:53:27;33.20;;;16.80;;
69588;SDS011;56792;50.644;17.984;2022-11-15T06:56:19;32.60;;;17.10;;
69588;SDS011;56792;50.644;17.984;2022-11-15T06:59:10;32.50;;;17.00;;
69588;SDS011;56792;50.644;17.984;2022-11-15T07:02:03;33.80;;;16.50;;
69588;SDS011;56792;50.644;17.984;2022-11-15T07:04:55;32.10;;;18.00;;
69588;SDS011;56792;50.644;17.984;2022-11-15T07:07:52;32.50;;;17.60;;
69588;SDS011;56792;50.644;17.984;2022-11-15T07:10:44;31.70;;;15.70;;
69588;SDS011;56792;50.644;17.984;2022-11-15T07:13:35;33.50;;;16.80;;
69588;SDS011;56792;50.644;17.984;2022-11-15T07:16:27;32.10;;;16.60;;
69588;SDS011;56792;50.644;17.984;2022-11-15T07:19:17;36.30;;;16.90;;
69588;SDS011;56792;50.644;17.984;2022-11-15T07:22:08;33.30;;;17.40;;
69588;SDS011;56792;50.644;17.984;2022-11-15T07:24:59;32.10;;;17.20;;
69588;SDS011;56792;50.644;17.984;2022-11-15T07:27:57;33.60;;;17.10;;
69588;SDS011;56792;50.644;17.984;2022-11-15T07:30:48;30.90;;;16.20;;
69588;SDS011;56792;50.644;17.984;2022-11-15T07:33:39;31.70;;;16.20;;
69588;SDS011;56792;50.644;17.984;2022-11-15T07:36:31;26.50;;;15.40;;
69588;SDS011;56792;50.644;17.984;2022-11-15T07:39:22;30.50;;;16.70;;
69588;SDS011;56792;50.644;17.984;2022-11-15T07:42:13;35.10;;;17.90;;
69588;SDS011;56792;50.644;17.984;2022-11-15T07:45:22;24.20;;;13.60;;
69588;SDS011;56792;50.644;17.984;2022-11-15T07:48:14;31.30;;;16.00;;
69588;SDS011;56792;50.644;17.984;2022-11-15T07:51:06;26.30;;;15.40;;
69588;SDS011;56792;50.644;17.984;2022-11-15T07:53:59;26.90;;;14.80;;
69588;SDS011;56792;50.644;17.984;2022-11-15T07:56:49;25.60;;;14.70;;
69588;SDS011;56792;50.644;17.984;2022-11-15T07:59:40;27.40;;;14.40;;
69588;SDS011;56792;50.644;17.984;2022-11-15T08:02:30;26.50;;;13.80;;
69588;SDS011;56792;50.644;17.984;2022-11-15T08:05:21;26.50;;;15.70;;
69588;SDS011;56792;50.644;17.984;2022-11-15T08:08:12;25.70;;;14.20;;
69588;SDS011;56792;50.644;17.984;2022-11-15T08:11:04;23.70;;;14.60;;
69588;SDS011;56792;50.644;17.984;2022-11-15T08:13:54;27.30;;;15.00;;
69588;SDS011;56792;50.644;17.984;2022-11-15T08:16:45;25.50;;;14.80;;
69588;SDS011;56792;50.644;17.984;2022-11-15T08:19:36;27.00;;;14.10;;
69588;SDS011;56792;50.644;17.984;2022-11-15T08:22:27;28.80;;;14.00;;
69588;SDS011;56792;50.644;17.984;2022-11-15T08:25:18;27.30;;;14.50;;
69588;SDS011;56792;50.644;17.984;2022-11-15T08:28:11;26.80;;;15.30;;
69588;SDS011;56792;50.644;17.984;2022-11-15T08:31:05;25.10;;;15.10;;
69588;SDS011;56792;50.644;17.984;2022-11-15T08:34:02;22.50;;;13.30;;
69588;SDS011;56792;50.644;17.984;2022-11-15T08:36:52;26.90;;;14.50;;
69588;SDS011;56792;50.644;17.984;2022-11-15T08:39:43;24.20;;;14.00;;
69588;SDS011;56792;50.644;17.984;2022-11-15T08:42:34;24.00;;;14.00;;
69588;SDS011;56792;50.644;17.984;2022-11-15T08:45:25;32.10;;;18.00;;
69588;SDS011;56792;50.644;17.984;2022-11-15T08:48:15;29.30;;;16.30;;
69588;SDS011;56792;50.644;17.984;2022-11-15T08:51:06;23.40;;;14.80;;
69588;SDS011;56792;50.644;17.984;2022-11-15T08:53:57;26.40;;;16.40;;
69588;SDS011;56792;50.644;17.984;2022-11-15T08:56:48;30.30;;;18.00;;
69588;SDS011;56792;50.644;17.984;2022-11-15T08:59:39;51.00;;;27.20;;
69588;SDS011;56792;50.644;17.984;2022-11-15T09:02:29;59.90;;;32.10;;
69588;SDS011;56792;50.644;17.984;2022-11-15T09:05:20;31.40;;;17.00;;
69588;SDS011;56792;50.644;17.984;2022-11-15T09:08:11;27.40;;;16.40;;
69588;SDS011;56792;50.644;17.984;2022-11-15T09:11:04;26.10;;;15.80;;
69588;SDS011;56792;50.644;17.984;2022-11-15T09:13:56;23.50;;;14.40;;
69588;SDS011;56792;50.644;17.984;2022-11-15T09:16:46;22.00;;;13.60;;
69588;SDS011;56792;50.644;17.984;2022-11-15T09:19:37;23.50;;;14.10;;
69588;SDS011;56792;50.644;17.984;2022-11-15T09:22:27;23.80;;;14.00;;
69588;SDS011;56792;50.644;17.984;2022-11-15T09:25:18;24.80;;;14.30;;
69588;SDS011;56792;50.644;17.984;2022-11-15T09:28:09;25.90;;;16.00;;
69588;SDS011;56792;50.644;17.984;2022-11-15T09:31:02;24.50;;;15.10;;
69588;SDS011;56792;50.644;17.984;2022-11-15T09:33:54;26.10;;;15.90;;
69588;SDS011;56792;50.644;17.984;2022-11-15T09:36:46;23.30;;;14.70;;
69588;SDS011;56792;50.644;17.984;2022-11-15T09:39:37;25.50;;;17.00;;
69588;SDS011;56792;50.644;17.984;2022-11-15T09:42:36;22.00;;;13.80;;
69588;SDS011;56792;50.644;17.984;2022-11-15T09:45:46;19.10;;;13.60;;
69588;SDS011;56792;50.644;17.984;2022-11-15T09:48:53;21.30;;;13.60;;
69588;SDS011;56792;50.644;17.984;2022-11-15T09:51:34;19.50;;;13.50;;
69588;SDS011;56792;50.644;17.984;2022-11-15T09:54:20;18.80;;;13.20;;
69588;SDS011;56792;50.644;17.984;2022-11-15T09:57:02;18.30;;;12.80;;
69588;SDS011;56792;50.644;17.984;2022-11-15T09:59:58;20.90;;;12.90;;
69588;SDS011;56792;50.644;17.984;2022-11-15T10:02:56;21.80;;;13.10;;
69588;SDS011;56792;50.644;17.984;2022-11-15T10:05:40;20.70;;;13.40;;
69588;SDS011;56792;50.644;17.984;2022-11-15T10:11:22;18.70;;;13.40;;
69588;SDS011;56792;50.644;17.984;2022-11-15T10:13:59;24.40;;;14.80;;
69588;SDS011;56792;50.644;17.984;2022-11-15T10:19:41;23.30;;;15.50;;
69588;SDS011;56792;50.644;17.984;2022-11-15T10:22:29;19.10;;;14.10;;
69588;SDS011;56792;50.644;17.984;2022-11-15T10:25:24;18.70;;;14.50;;
69588;SDS011;56792;50.644;17.984;2022-11-15T10:27:58;19.90;;;13.50;;
69588;SDS011;56792;50.644;17.984;2022-11-15T10:30:37;16.50;;;13.30;;
69588;SDS011;56792;50.644;17.984;2022-11-15T10:33:23;17.80;;;14.20;;
69588;SDS011;56792;50.644;17.984;2022-11-15T10:36:23;17.00;;;13.70;;
69588;SDS011;56792;50.644;17.984;2022-11-15T10:38:59;18.00;;;12.00;;
69588;SDS011;56792;50.644;17.984;2022-11-15T10:41:36;15.00;;;11.80;;
69588;SDS011;56792;50.644;17.984;2022-11-15T10:44:23;13.90;;;11.40;;
69588;SDS011;56792;50.644;17.984;2022-11-15T10:47:26;17.60;;;12.80;;
69588;SDS011;56792;50.644;17.984;2022-11-15T10:50:03;16.20;;;12.40;;
69588;SDS011;56792;50.644;17.984;2022-11-15T10:52:37;18.50;;;14.10;;
69588;SDS011;56792;50.644;17.984;2022-11-15T10:55:27;19.30;;;14.00;;
69588;SDS011;56792;50.644;17.984;2022-11-15T10:58:04;19.80;;;13.90;;
69588;SDS011;56792;50.644;17.984;2022-11-15T11:00:55;19.00;;;14.20;;
69588;SDS011;56792;50.644;17.984;2022-11-15T11:03:40;17.20;;;14.30;;
69588;SDS011;56792;50.644;17.984;2022-11-15T11:06:15;18.70;;;15.70;;
69588;SDS011;56792;50.644;17.984;2022-11-15T11:08:57;18.00;;;14.00;;
69588;SDS011;56792;50.644;17.984;2022-11-15T11:11:47;20.10;;;14.40;;
69588;SDS011;56792;50.644;17.984;2022-11-15T11:14:23;17.70;;;15.10;;
69588;SDS011;56792;50.644;17.984;2022-11-15T11:17:05;26.40;;;20.90;;
69588;SDS011;56792;50.644;17.984;2022-11-15T11:19:58;19.80;;;16.60;;
69588;SDS011;56792;50.644;17.984;2022-11-15T11:22:39;23.80;;;19.20;;
69588;SDS011;56792;50.644;17.984;2022-11-15T11:25:30;16.30;;;13.50;;
69588;SDS011;56792;50.644;17.984;2022-11-15T11:28:33;21.20;;;15.80;;
69588;SDS011;56792;50.644;17.984;2022-11-15T11:31:23;14.80;;;13.20;;
69588;SDS011;56792;50.644;17.984;2022-11-15T11:34:08;17.40;;;13.80;;
69588;SDS011;56792;50.644;17.984;2022-11-15T11:36:52;15.90;;;12.70;;
69588;SDS011;56792;50.644;17.984;2022-11-15T11:39:36;16.10;;;13.30;;
69588;SDS011;56792;50.644;17.984;2022-11-15T11:42:23;14.40;;;12.70;;
69588;SDS011;56792;50.644;17.984;2022-11-15T11:45:10;15.30;;;13.30;;
69588;SDS011;56792;50.644;17.984;2022-11-15T11:48:14;14.80;;;13.20;;
69588;SDS011;56792;50.644;17.984;2022-11-15T11:50:51;15.40;;;13.10;;
69588;SDS011;56792;50.644;17.984;2022-11-15T11:53:31;17.10;;;15.30;;
69588;SDS011;56792;50.644;17.984;2022-11-15T11:56:19;14.50;;;12.20;;
69588;SDS011;56792;50.644;17.984;2022-11-15T11:58:59;14.70;;;12.00;;
69588;SDS011;56792;50.644;17.984;2022-11-15T12:01:39;22.10;;;14.90;;
69588;SDS011;56792;50.644;17.984;2022-11-15T12:04:17;15.70;;;13.40;;
69588;SDS011;56792;50.644;17.984;2022-11-15T12:06:57;14.50;;;12.10;;
69588;SDS011;56792;50.644;17.984;2022-11-15T12:09:37;16.70;;;12.50;;
69588;SDS011;56792;50.644;17.984;2022-11-15T12:12:17;15.00;;;12.70;;
69588;SDS011;56792;50.644;17.984;2022-11-15T12:14:57;16.70;;;12.80;;
69588;SDS011;56792;50.644;17.984;2022-11-15T12:17:34;18.10;;;13.40;;
69588;SDS011;56792;50.644;17.984;2022-11-15T12:20:16;13.70;;;11.50;;
69588;SDS011;56792;50.644;17.984;2022-11-15T12:22:54;14.60;;;12.00;;
69588;SDS011;56792;50.644;17.984;2022-11-15T12:25:35;15.40;;;12.70;;
69588;SDS011;56792;50.644;17.984;2022-11-15T12:28:17;15.80;;;12.90;;
69588;SDS011;56792;50.644;17.984;2022-11-15T12:30:59;19.00;;;15.40;;
69588;SDS011;56792;50.644;17.984;2022-11-15T12:33:38;21.00;;;16.40;;
69588;SDS011;56792;50.644;17.984;2022-11-15T12:39:11;15.90;;;13.30;;
69588;SDS011;56792;50.644;17.984;2022-11-15T12:42:34;17.10;;;13.20;;
69588;SDS011;56792;50.644;17.984;2022-11-15T12:44:59;31.40;;;20.10;;
69588;SDS011;56792;50.644;17.984;2022-11-15T12:47:33;67.20;;;42.40;;
69588;SDS011;56792;50.644;17.984;2022-11-15T12:50:10;21.10;;;15.60;;
69588;SDS011;56792;50.644;17.984;2022-11-15T12:56:26;16.80;;;13.70;;
69588;SDS011;56792;50.644;17.984;2022-11-15T12:59:00;19.00;;;14.80;;
69588;SDS011;56792;50.644;17.984;2022-11-15T13:02:00;18.00;;;13.50;;
69588;SDS011;56792;50.644;17.984;2022-11-15T13:04:32;18.50;;;13.00;;
69588;SDS011;56792;50.644;17.984;2022-11-15T13:07:05;16.50;;;13.40;;
69588;SDS011;56792;50.644;17.984;2022-11-15T13:09:57;19.20;;;13.70;;
69588;SDS011;56792;50.644;17.984;2022-11-15T13:12:57;16.80;;;14.70;;
69588;SDS011;56792;50.644;17.984;2022-11-15T13:15:53;19.90;;;15.30;;
69588;SDS011;56792;50.644;17.984;2022-11-15T13:18:39;18.00;;;13.90;;
69588;SDS011;56792;50.644;17.984;2022-11-15T13:21:23;18.80;;;13.70;;
69588;SDS011;56792;50.644;17.984;2022-11-15T13:24:17;19.80;;;15.60;;
69588;SDS011;56792;50.644;17.984;2022-11-15T13:26:56;22.60;;;16.70;;
69588;SDS011;56792;50.644;17.984;2022-11-15T13:29:28;23.30;;;17.50;;
69588;SDS011;56792;50.644;17.984;2022-11-15T13:32:00;20.20;;;14.20;;
69588;SDS011;56792;50.644;17.984;2022-11-15T13:34:33;19.80;;;13.80;;
69588;SDS011;56792;50.644;17.984;2022-11-15T13:37:11;21.30;;;15.10;;
69588;SDS011;56792;50.644;17.984;2022-11-15T13:40:16;18.30;;;13.90;;
69588;SDS011;56792;50.644;17.984;2022-11-15T13:42:56;20.20;;;13.70;;
69588;SDS011;56792;50.644;17.984;2022-11-15T13:45:28;19.50;;;14.90;;
69588;SDS011;56792;50.644;17.984;2022-11-15T13:48:02;19.90;;;14.70;;
69588;SDS011;56792;50.644;17.984;2022-11-15T13:50:39;22.10;;;15.90;;
69588;SDS011;56792;50.644;17.984;2022-11-15T13:53:12;20.60;;;15.10;;
69588;SDS011;56792;50.644;17.984;2022-11-15T13:55:44;22.60;;;15.50;;
69588;SDS011;56792;50.644;17.984;2022-11-15T13:58:16;22.80;;;16.20;;
69588;SDS011;56792;50.644;17.984;2022-11-15T14:00:48;24.30;;;16.50;;
69588;SDS011;56792;50.644;17.984;2022-11-15T14:03:32;24.30;;;15.90;;
69588;SDS011;56792;50.644;17.984;2022-11-15T14:06:09;23.40;;;14.70;;
69588;SDS011;56792;50.644;17.984;2022-11-15T14:09:01;23.80;;;16.80;;
69588;SDS011;56792;50.644;17.984;2022-11-15T14:12:00;24.10;;;16.50;;
69588;SDS011;56792;50.644;17.984;2022-11-15T14:14:50;30.90;;;19.30;;
69588;SDS011;56792;50.644;17.984;2022-11-15T14:17:35;28.80;;;19.20;;
69588;SDS011;56792;50.644;17.984;2022-11-15T14:20:29;29.80;;;18.90;;
69588;SDS011;56792;50.644;17.984;2022-11-15T14:23:04;30.90;;;20.00;;
69588;SDS011;56792;50.644;17.984;2022-11-15T14:25:56;29.50;;;18.40;;
69588;SDS011;56792;50.644;17.984;2022-11-15T14:28:33;38.30;;;21.10;;
69588;SDS011;56792;50.644;17.984;2022-11-15T14:31:13;35.60;;;21.20;;
69588;SDS011;56792;50.644;17.984;2022-11-15T14:33:45;41.20;;;22.00;;
69588;SDS011;56792;50.644;17.984;2022-11-15T14:36:20;43.70;;;22.20;;
69588;SDS011;56792;50.644;17.984;2022-11-15T14:38:52;84.30;;;35.00;;
69588;SDS011;56792;50.644;17.984;2022-11-15T14:41:25;98.10;;;44.40;;
69588;SDS011;56792;50.644;17.984;2022-11-15T14:44:01;80.60;;;36.60;;
69588;SDS011;56792;50.644;17.984;2022-11-15T14:46:33;64.90;;;35.30;;
69588;SDS011;56792;50.644;17.984;2022-11-15T14:49:05;55.10;;;29.80;;
69588;SDS011;56792;50.644;17.984;2022-11-15T14:51:37;37.40;;;21.60;;
69588;SDS011;56792;50.644;17.984;2022-11-15T14:54:11;36.60;;;19.90;;
69588;SDS011;56792;50.644;17.984;2022-11-15T14:56:43;44.90;;;24.20;;
69588;SDS011;56792;50.644;17.984;2022-11-15T14:59:15;38.40;;;20.90;;
69588;SDS011;56792;50.644;17.984;2022-11-15T15:01:47;42.60;;;26.10;;
69588;SDS011;56792;50.644;17.984;2022-11-15T15:04:19;43.60;;;24.70;;
69588;SDS011;56792;50.644;17.984;2022-11-15T15:06:51;41.50;;;23.10;;
69588;SDS011;56792;50.644;17.984;2022-11-15T15:09:23;33.90;;;19.00;;
69588;SDS011;56792;50.644;17.984;2022-11-15T15:11:54;33.70;;;18.60;;
69588;SDS011;56792;50.644;17.984;2022-11-15T15:14:26;37.10;;;20.10;;
69588;SDS011;56792;50.644;17.984;2022-11-15T15:16:58;36.20;;;20.80;;
69588;SDS011;56792;50.644;17.984;2022-11-15T15:19:30;34.10;;;19.90;;
69588;SDS011;56792;50.644;17.984;2022-11-15T15:22:02;36.00;;;20.50;;
69588;SDS011;56792;50.644;17.984;2022-11-15T15:24:34;40.00;;;21.90;;
69588;SDS011;56792;50.644;17.984;2022-11-15T15:27:06;36.70;;;20.00;;
69588;SDS011;56792;50.644;17.984;2022-11-15T15:29:38;38.50;;;20.60;;
69588;SDS011;56792;50.644;17.984;2022-11-15T15:32:10;40.30;;;20.30;;
69588;SDS011;56792;50.644;17.984;2022-11-15T15:34:42;36.00;;;19.30;;
69588;SDS011;56792;50.644;17.984;2022-11-15T15:37:25;34.20;;;18.70;;
69588;SDS011;56792;50.644;17.984;2022-11-15T15:39:58;37.20;;;19.50;;
69588;SDS011;56792;50.644;17.984;2022-11-15T15:42:30;37.00;;;19.30;;
69588;SDS011;56792;50.644;17.984;2022-11-15T15:45:03;29.60;;;16.30;;
69588;SDS011;56792;50.644;17.984;2022-11-15T15:47:36;35.20;;;19.20;;
69588;SDS011;56792;50.644;17.984;2022-11-15T15:50:20;36.00;;;17.90;;
69588;SDS011;56792;50.644;17.984;2022-11-15T15:52:54;34.60;;;18.40;;
69588;SDS011;56792;50.644;17.984;2022-11-15T15:55:28;41.50;;;18.90;;
69588;SDS011;56792;50.644;17.984;2022-11-15T15:58:01;33.70;;;18.30;;
69588;SDS011;56792;50.644;17.984;2022-11-15T16:00:33;34.70;;;16.00;;
69588;SDS011;56792;50.644;17.984;2022-11-15T16:03:05;38.80;;;18.90;;
69588;SDS011;56792;50.644;17.984;2022-11-15T16:05:37;45.10;;;22.10;;
69588;SDS011;56792;50.644;17.984;2022-11-15T16:08:14;45.70;;;22.40;;
69588;SDS011;56792;50.644;17.984;2022-11-15T16:10:49;48.90;;;23.40;;
69588;SDS011;56792;50.644;17.984;2022-11-15T16:13:22;42.80;;;20.90;;
69588;SDS011;56792;50.644;17.984;2022-11-15T16:15:54;48.70;;;23.90;;
69588;SDS011;56792;50.644;17.984;2022-11-15T16:18:26;54.20;;;25.50;;
69588;SDS011;56792;50.644;17.984;2022-11-15T16:20:58;48.50;;;24.50;;
69588;SDS011;56792;50.644;17.984;2022-11-15T16:23:30;61.60;;;31.10;;